Ortonville, MN

9:47 PM CDT on May 25, 2018 (GMT -0500)
Ortonville Municipal-Martinson

Weather History for KVVV - November, 2013

Change the Weather History Date:

Monday, November 4, 2013

  Actual Average (KAQP) Record (KAQP)
Temperature  
Mean Temperature 38 °F -  
Max Temperature 46 °F 43 °F 75 °F (2016)
Min Temperature 30 °F 26 °F 21 °F (1999)
Degree Days  
Heating Degree Days 27    
Moisture  
Dew Point 29 °F    
Average Humidity 68    
Maximum Humidity 87    
Minimum Humidity 46    
Precipitation  
Precipitation 0.00 in - - ()
Sea Level Pressure  
Sea Level Pressure 29.88 in    
Wind  
Wind Speed 8 mph (West)    
Max Wind Speed 18 mph    
Max Gust Speed 24 mph    
Visibility 10 miles    
Events Rain    
Averages and records for this station are not official NWS values.
T = Trace of Precipitation, MM = Missing Value Source: NWS Daily Summary

Daily Weather History Graph

Daily Weather History Graph

Search for Another Location

Airport or City:

Astronomy

Nov. 04, 2013 Rise Set
Actual Time 7:09 AM CST 5:08 PM CST
Civil Twilight 6:38 AM CST 5:39 PM CST
Nautical Twilight 6:03 AM CST 6:14 PM CST
Astronomical Twilight 5:28 AM CST 6:49 PM CST
Moon 8:24 AM CST (11/4) 6:10 PM CST (11/4)
Length of Visible Light 11h 01m
Length of Day
9h 59m
New Moon, 2% of the Moon is Illuminated
Nov 4
New Moon
Nov 9
First Quarter
Nov 17
Full
Nov 25
Last Quarter
Dec 2
New

Hourly Weather History & Observations

Time (CST) Temp. Windchill Dew Point Humidity Pressure Visibility Wind Dir Wind Speed Gust Speed Precip Events Conditions
12:13 AM 44.6 °F 39.2 °F 33.8 °F 66% 29.68 in 10.0 mi SSE 10.4 mph 16.1 mph N/A   Clear
12:34 AM 42.8 °F 38.0 °F 33.8 °F 70% 29.68 in 10.0 mi SSE 8.1 mph - N/A   Clear
12:51 AM 42.8 °F 38.0 °F 33.8 °F 70% 29.68 in 10.0 mi SSE 8.1 mph - N/A   Clear
1:14 AM 42.8 °F 37.0 °F 33.8 °F 70% 29.68 in 10.0 mi SSE 10.4 mph - N/A   Clear
1:33 AM 42.8 °F 37.5 °F 33.8 °F 70% 29.69 in 10.0 mi SSE 9.2 mph - N/A   Clear
1:54 AM 41.0 °F 36.4 °F 33.8 °F 76% 29.68 in 10.0 mi SSE 6.9 mph - N/A   Clear
2:14 AM 41.0 °F 36.4 °F 33.8 °F 76% 29.69 in 10.0 mi SSE 6.9 mph - N/A   Clear
2:33 AM 41.0 °F 36.4 °F 33.8 °F 76% 29.69 in 10.0 mi SSE 6.9 mph - N/A   Clear
2:54 AM 39.2 °F 35.9 °F 33.8 °F 81% 29.69 in 10.0 mi SSE 4.6 mph - N/A   Clear
3:14 AM 39.2 °F 35.0 °F 33.8 °F 81% 29.69 in 10.0 mi SSE 5.8 mph - N/A   Clear
3:34 AM 41.0 °F 36.4 °F 33.8 °F 76% 29.69 in 10.0 mi SSE 6.9 mph - N/A   Clear
3:54 AM 39.2 °F - 33.8 °F 81% 29.70 in 10.0 mi Calm Calm - N/A   Clear
4:14 AM 37.4 °F 33.8 °F 33.8 °F 87% 29.70 in 10.0 mi SE 4.6 mph - N/A   Clear
4:34 AM 35.6 °F 32.8 °F 32.0 °F 87% 29.70 in 10.0 mi SSE 3.5 mph - N/A   Clear
4:54 AM 37.4 °F 32.1 °F 33.8 °F 87% 29.70 in 10.0 mi SE 6.9 mph - N/A   Clear
5:14 AM 35.6 °F 31.7 °F 32.0 °F 87% 29.71 in 10.0 mi SE 4.6 mph - N/A   Clear
5:34 AM 35.6 °F - 32.0 °F 87% 29.71 in 10.0 mi Calm Calm - N/A   Clear
5:54 AM 37.4 °F 34.9 °F 33.8 °F 87% 29.71 in 10.0 mi SE 3.5 mph - N/A   Clear
6:13 AM 35.6 °F 32.8 °F 32.0 °F 87% 29.72 in 10.0 mi SE 3.5 mph - N/A   Clear
6:34 AM 35.6 °F - 32.0 °F 87% 29.73 in 10.0 mi Calm Calm - N/A   Clear
6:54 AM 35.6 °F - 32.0 °F 87% 29.75 in 10.0 mi Calm Calm - N/A   Scattered Clouds
7:13 AM 37.4 °F 32.8 °F 33.8 °F 87% 29.75 in 10.0 mi WNW 5.8 mph - N/A   Overcast
7:34 AM 39.2 °F 32.0 °F 33.8 °F 81% 29.76 in 10.0 mi NW 11.5 mph - N/A   Overcast
7:54 AM 41.0 °F 33.9 °F 33.8 °F 76% 29.77 in 10.0 mi NW 12.7 mph - N/A   Overcast
8:13 AM 42.8 °F 35.1 °F 33.8 °F 70% 29.79 in 10.0 mi NW 16.1 mph 19.6 mph N/A   Scattered Clouds
8:34 AM 42.8 °F 35.1 °F 30.2 °F 61% 29.80 in 10.0 mi NW 16.1 mph 24.2 mph N/A   Scattered Clouds
8:54 AM 42.8 °F 34.5 °F 32.0 °F 66% 29.81 in 10.0 mi NW 18.4 mph 23.0 mph N/A   Drizzle
9:13 AM 41.0 °F 32.8 °F 33.8 °F 76% 29.83 in 10.0 mi NW 16.1 mph 23.0 mph N/A Rain Light Rain
9:34 AM 41.0 °F 33.5 °F 33.8 °F 76% 29.84 in 10.0 mi NW 13.8 mph 21.9 mph N/A Rain Light Rain
9:54 AM 41.0 °F 35.2 °F 32.0 °F 70% 29.85 in 10.0 mi NW 9.2 mph - N/A   Light Drizzle
10:14 AM 41.0 °F 34.7 °F 32.0 °F 70% 29.86 in 10.0 mi NW 10.4 mph - N/A   Light Drizzle
10:34 AM 41.0 °F 34.3 °F 30.2 °F 65% 29.86 in 10.0 mi NW 11.5 mph - N/A Rain Light Rain
10:53 AM 42.8 °F 36.6 °F 30.2 °F 61% 29.87 in 10.0 mi WNW 11.5 mph 18.4 mph N/A   Mostly Cloudy
11:14 AM 42.8 °F 36.6 °F 28.4 °F 57% 29.88 in 10.0 mi NW 11.5 mph - N/A   Scattered Clouds
11:34 AM 42.8 °F 36.2 °F 28.4 °F 57% 29.88 in 10.0 mi WNW 12.7 mph 16.1 mph N/A   Scattered Clouds
11:54 AM 42.8 °F 35.4 °F 28.4 °F 57% 29.88 in 10.0 mi WNW 15.0 mph - N/A   Scattered Clouds
12:13 PM 44.6 °F 38.1 °F 28.4 °F 53% 29.89 in 10.0 mi WNW 13.8 mph 21.9 mph N/A   Scattered Clouds
12:33 PM 44.6 °F 38.8 °F 28.4 °F 53% 29.89 in 10.0 mi WNW 11.5 mph - N/A   Clear
12:54 PM 46.4 °F 39.8 °F 28.4 °F 50% 29.89 in 10.0 mi WNW 16.1 mph - N/A   Scattered Clouds
1:14 PM 46.4 °F 39.8 °F 28.4 °F 50% 29.89 in 10.0 mi West 16.1 mph 20.7 mph N/A   Clear
1:34 PM 46.4 °F 39.2 °F 28.4 °F 50% 29.89 in 10.0 mi WNW 18.4 mph 21.9 mph N/A   Clear
1:53 PM 46.4 °F 41.1 °F 28.4 °F 50% 29.90 in 10.0 mi West 11.5 mph 20.7 mph N/A   Clear
2:14 PM 46.4 °F 40.4 °F 28.4 °F 50% 29.91 in 10.0 mi West 13.8 mph - N/A   Clear
2:33 PM 46.4 °F 39.5 °F 26.6 °F 46% 29.91 in 10.0 mi West 17.3 mph 21.9 mph N/A   Clear
2:54 PM 46.4 °F 40.7 °F 28.4 °F 50% 29.92 in 10.0 mi West 12.7 mph 20.7 mph N/A   Clear
3:14 PM 46.4 °F 40.4 °F 26.6 °F 46% 29.93 in 10.0 mi West 13.8 mph - N/A   Clear
3:33 PM 44.6 °F 38.1 °F 26.6 °F 49% 29.94 in 10.0 mi WNW 13.8 mph - N/A   Clear
3:54 PM 44.6 °F 38.1 °F 26.6 °F 49% 29.95 in 10.0 mi WNW 13.8 mph 18.4 mph N/A   Clear
4:13 PM 44.6 °F 39.2 °F 26.6 °F 49% 29.95 in 10.0 mi WNW 10.4 mph 16.1 mph N/A   Clear
4:34 PM 44.6 °F 39.7 °F 26.6 °F 49% 29.96 in 10.0 mi WNW 9.2 mph - N/A   Clear
4:54 PM 42.8 °F 38.0 °F 26.6 °F 53% 29.97 in 10.0 mi WNW 8.1 mph - N/A   Clear
5:13 PM 42.8 °F 39.3 °F 26.6 °F 53% 29.98 in 10.0 mi West 5.8 mph - N/A   Clear
5:34 PM 41.0 °F 38.0 °F 26.6 °F 57% 29.98 in 10.0 mi WNW 4.6 mph - N/A   Clear
5:54 PM 39.2 °F 35.0 °F 26.6 °F 61% 29.98 in 10.0 mi West 5.8 mph - N/A   Clear
6:13 PM 39.2 °F 33.6 °F 26.6 °F 61% 29.99 in 10.0 mi West 8.1 mph - N/A   Clear
6:34 PM 39.2 °F 34.2 °F 26.6 °F 61% 30.01 in 10.0 mi WNW 6.9 mph - N/A   Clear
6:54 PM 39.2 °F 35.9 °F 26.6 °F 61% 30.02 in 10.0 mi WNW 4.6 mph - N/A   Clear
7:13 PM 37.4 °F - 26.6 °F 65% 30.03 in 10.0 mi Calm Calm - N/A   Clear
7:34 PM 37.4 °F 32.1 °F 26.6 °F 65% 30.04 in 10.0 mi WSW 6.9 mph - N/A   Clear
7:54 PM 35.6 °F 31.7 °F 24.8 °F 65% 30.05 in 10.0 mi WSW 4.6 mph - N/A   Clear
8:14 PM 35.6 °F 31.7 °F 24.8 °F 65% 30.06 in 10.0 mi WSW 4.6 mph - N/A   Clear
8:34 PM 33.8 °F 28.6 °F 24.8 °F 70% 30.06 in 10.0 mi WSW 5.8 mph - N/A   Clear
8:53 PM 33.8 °F 29.6 °F 24.8 °F 70% 30.07 in 10.0 mi SW 4.6 mph - N/A   Clear
9:14 PM 33.8 °F 29.6 °F 24.8 °F 70% 30.08 in 10.0 mi SSW 4.6 mph - N/A   Clear
9:33 PM 32.0 °F 27.5 °F 24.8 °F 75% 30.09 in 10.0 mi SW 4.6 mph - N/A   Clear
9:54 PM 30.2 °F 25.4 °F 24.8 °F 80% 30.10 in 10.0 mi SW 4.6 mph - N/A   Clear
10:13 PM 30.2 °F 26.7 °F 24.8 °F 80% 30.11 in 10.0 mi WSW 3.5 mph - N/A   Clear
10:34 PM 32.0 °F 26.4 °F 24.8 °F 75% 30.11 in 10.0 mi West 5.8 mph - N/A   Clear
10:54 PM 33.8 °F 28.6 °F 24.8 °F 70% 30.12 in 10.0 mi West 5.8 mph - N/A   Clear
11:14 PM 33.8 °F 28.6 °F 24.8 °F 70% 30.12 in 10.0 mi West 5.8 mph - N/A   Clear
11:34 PM 33.8 °F 29.6 °F 24.8 °F 70% 30.12 in 10.0 mi West 4.6 mph - N/A   Clear
11:53 PM 33.8 °F 30.8 °F 24.8 °F 70% 30.13 in 10.0 mi West 3.5 mph - N/A   Clear